sensor_id;sensor_type;location;lat;lon;timestamp;pressure;altitude;pressure_sealevel;temperature;humidity
33795;BME280;51430;52.242;21.118;2022-08-20T00:02:14;100047.98;;;24.67;67.62
33795;BME280;51430;52.242;21.118;2022-08-20T00:04:43;100054.75;;;24.64;67.84
33795;BME280;51430;52.242;21.118;2022-08-20T00:07:12;100055.94;;;24.57;67.88
33795;BME280;51430;52.242;21.118;2022-08-20T00:09:42;100060.90;;;24.51;68.40
33795;BME280;51430;52.242;21.118;2022-08-20T00:12:12;100061.23;;;24.46;68.96
33795;BME280;51430;52.242;21.118;2022-08-20T00:14:43;100062.66;;;24.34;69.21
33795;BME280;51430;52.242;21.118;2022-08-20T00:17:11;100068.91;;;24.22;69.98
33795;BME280;51430;52.242;21.118;2022-08-20T00:19:39;100074.73;;;24.13;70.47
33795;BME280;51430;52.242;21.118;2022-08-20T00:22:07;100079.80;;;24.07;70.76
33795;BME280;51430;52.242;21.118;2022-08-20T00:24:35;100071.22;;;24.00;71.06
33795;BME280;51430;52.242;21.118;2022-08-20T00:27:03;100069.55;;;23.89;71.41
33795;BME280;51430;52.242;21.118;2022-08-20T00:29:32;100072.58;;;23.77;72.09
33795;BME280;51430;52.242;21.118;2022-08-20T00:32:00;100072.79;;;23.73;72.44
33795;BME280;51430;52.242;21.118;2022-08-20T00:34:29;100077.92;;;23.69;72.63
33795;BME280;51430;52.242;21.118;2022-08-20T00:36:57;100079.61;;;23.65;72.97
33795;BME280;51430;52.242;21.118;2022-08-20T00:39:25;100080.84;;;23.60;73.07
33795;BME280;51430;52.242;21.118;2022-08-20T00:41:53;100079.90;;;23.56;73.58
33795;BME280;51430;52.242;21.118;2022-08-20T00:44:22;100075.75;;;23.53;73.90
33795;BME280;51430;52.242;21.118;2022-08-20T00:46:51;100073.60;;;23.45;74.10
33795;BME280;51430;52.242;21.118;2022-08-20T00:49:27;100068.52;;;23.38;74.50
33795;BME280;51430;52.242;21.118;2022-08-20T00:52:09;100065.42;;;23.34;74.81
33795;BME280;51430;52.242;21.118;2022-08-20T00:54:49;100057.67;;;23.32;74.95
33795;BME280;51430;52.242;21.118;2022-08-20T00:57:30;100056.14;;;23.32;74.83
33795;BME280;51430;52.242;21.118;2022-08-20T01:00:38;100054.67;;;23.30;74.83
33795;BME280;51430;52.242;21.118;2022-08-20T01:03:08;100047.73;;;23.27;75.05
33795;BME280;51430;52.242;21.118;2022-08-20T01:05:40;100040.70;;;23.14;75.64
33795;BME280;51430;52.242;21.118;2022-08-20T01:08:09;100033.39;;;23.03;75.90
33795;BME280;51430;52.242;21.118;2022-08-20T01:10:40;100025.22;;;22.96;76.04
33795;BME280;51430;52.242;21.118;2022-08-20T01:13:18;100016.27;;;22.96;75.94
33795;BME280;51430;52.242;21.118;2022-08-20T01:15:49;100010.52;;;22.92;75.90
33795;BME280;51430;52.242;21.118;2022-08-20T01:18:27;100000.58;;;22.93;75.68
33795;BME280;51430;52.242;21.118;2022-08-20T01:20:58;99994.19;;;22.96;75.43
33795;BME280;51430;52.242;21.118;2022-08-20T01:29:25;99983.77;;;23.10;73.81
33795;BME280;51430;52.242;21.118;2022-08-20T01:31:57;99986.89;;;23.12;73.27
33795;BME280;51430;52.242;21.118;2022-08-20T01:34:28;99991.66;;;23.13;73.52
33795;BME280;51430;52.242;21.118;2022-08-20T01:36:57;99988.86;;;23.14;73.94
33795;BME280;51430;52.242;21.118;2022-08-20T01:39:31;99976.76;;;23.09;73.88
33795;BME280;51430;52.242;21.118;2022-08-20T01:42:20;99973.75;;;23.03;74.12
33795;BME280;51430;52.242;21.118;2022-08-20T01:44:52;99974.61;;;22.97;74.27
33795;BME280;51430;52.242;21.118;2022-08-20T01:47:27;99973.95;;;22.95;74.09
33795;BME280;51430;52.242;21.118;2022-08-20T01:50:14;99976.58;;;22.94;73.87
33795;BME280;51430;52.242;21.118;2022-08-20T01:53:08;99975.15;;;22.91;73.78
33795;BME280;51430;52.242;21.118;2022-08-20T01:55:38;99970.21;;;22.87;74.02
33795;BME280;51430;52.242;21.118;2022-08-20T01:58:06;99964.84;;;22.90;73.90
33795;BME280;51430;52.242;21.118;2022-08-20T02:00:35;99960.58;;;22.89;74.16
33795;BME280;51430;52.242;21.118;2022-08-20T02:03:03;99952.25;;;22.86;74.12
33795;BME280;51430;52.242;21.118;2022-08-20T02:05:31;99949.09;;;22.84;74.21
33795;BME280;51430;52.242;21.118;2022-08-20T02:08:01;99949.53;;;22.83;74.01
33795;BME280;51430;52.242;21.118;2022-08-20T02:10:30;99949.12;;;22.80;74.22
33795;BME280;51430;52.242;21.118;2022-08-20T02:12:59;99948.38;;;22.78;74.48
33795;BME280;51430;52.242;21.118;2022-08-20T02:15:28;99946.98;;;22.76;74.51
33795;BME280;51430;52.242;21.118;2022-08-20T02:18:09;99946.31;;;22.72;74.80
33795;BME280;51430;52.242;21.118;2022-08-20T02:20:39;99946.11;;;22.69;74.97
33795;BME280;51430;52.242;21.118;2022-08-20T02:23:11;99946.89;;;22.67;75.00
33795;BME280;51430;52.242;21.118;2022-08-20T02:25:41;99948.80;;;22.65;75.13
33795;BME280;51430;52.242;21.118;2022-08-20T02:28:16;99953.20;;;22.63;75.19
33795;BME280;51430;52.242;21.118;2022-08-20T02:30:50;99950.52;;;22.59;75.55
33795;BME280;51430;52.242;21.118;2022-08-20T02:33:20;99950.80;;;22.54;76.01
33795;BME280;51430;52.242;21.118;2022-08-20T02:35:52;99949.95;;;22.51;76.14
33795;BME280;51430;52.242;21.118;2022-08-20T02:38:22;99951.20;;;22.46;76.24
33795;BME280;51430;52.242;21.118;2022-08-20T02:40:51;99954.30;;;22.43;76.42
33795;BME280;51430;52.242;21.118;2022-08-20T02:43:19;99959.39;;;22.39;76.42
33795;BME280;51430;52.242;21.118;2022-08-20T02:45:48;99974.03;;;22.39;76.23
33795;BME280;51430;52.242;21.118;2022-08-20T02:48:18;99982.75;;;22.36;76.41
33795;BME280;51430;52.242;21.118;2022-08-20T02:50:54;99986.67;;;22.33;76.57
33795;BME280;51430;52.242;21.118;2022-08-20T02:53:24;99985.77;;;22.33;76.49
33795;BME280;51430;52.242;21.118;2022-08-20T02:55:52;99992.00;;;22.34;76.47
33795;BME280;51430;52.242;21.118;2022-08-20T02:58:22;99992.42;;;22.34;76.55
33795;BME280;51430;52.242;21.118;2022-08-20T03:00:51;99992.36;;;22.33;76.58
33795;BME280;51430;52.242;21.118;2022-08-20T03:03:19;99997.20;;;22.33;76.63
33795;BME280;51430;52.242;21.118;2022-08-20T03:05:53;99992.16;;;22.33;76.60
33795;BME280;51430;52.242;21.118;2022-08-20T03:08:23;99986.75;;;22.34;76.62
33795;BME280;51430;52.242;21.118;2022-08-20T03:10:52;99976.95;;;22.35;77.07
33795;BME280;51430;52.242;21.118;2022-08-20T03:13:21;99971.65;;;22.30;77.50
33795;BME280;51430;52.242;21.118;2022-08-20T03:15:54;99975.14;;;22.23;77.91
33795;BME280;51430;52.242;21.118;2022-08-20T03:18:30;99979.83;;;22.14;78.35
33795;BME280;51430;52.242;21.118;2022-08-20T03:21:00;99963.79;;;22.10;78.53
33795;BME280;51430;52.242;21.118;2022-08-20T03:23:29;99948.16;;;22.06;78.96
33795;BME280;51430;52.242;21.118;2022-08-20T03:25:57;99939.67;;;22.05;78.78
33795;BME280;51430;52.242;21.118;2022-08-20T03:28:26;99936.53;;;22.08;78.72
33795;BME280;51430;52.242;21.118;2022-08-20T03:30:54;99931.29;;;22.09;78.52
33795;BME280;51430;52.242;21.118;2022-08-20T03:33:25;99925.84;;;22.10;78.60
33795;BME280;51430;52.242;21.118;2022-08-20T03:35:54;99919.83;;;22.13;78.64
33795;BME280;51430;52.242;21.118;2022-08-20T03:38:22;99910.60;;;22.13;78.47
33795;BME280;51430;52.242;21.118;2022-08-20T03:41:01;99911.14;;;22.15;78.43
33795;BME280;51430;52.242;21.118;2022-08-20T03:43:31;99909.88;;;22.13;78.37
33795;BME280;51430;52.242;21.118;2022-08-20T03:46:00;99904.41;;;22.11;78.48
33795;BME280;51430;52.242;21.118;2022-08-20T03:48:29;99898.63;;;22.12;78.56
33795;BME280;51430;52.242;21.118;2022-08-20T03:50:57;99897.29;;;22.13;78.63
33795;BME280;51430;52.242;21.118;2022-08-20T03:53:28;99894.39;;;22.16;78.41
33795;BME280;51430;52.242;21.118;2022-08-20T03:55:59;99889.48;;;22.18;78.37
33795;BME280;51430;52.242;21.118;2022-08-20T03:58:30;99890.02;;;22.22;78.46
33795;BME280;51430;52.242;21.118;2022-08-20T04:01:04;99893.56;;;22.29;78.00
33795;BME280;51430;52.242;21.118;2022-08-20T04:03:33;99899.11;;;22.37;77.88
33795;BME280;51430;52.242;21.118;2022-08-20T04:06:02;99909.29;;;22.46;77.19
33795;BME280;51430;52.242;21.118;2022-08-20T04:08:30;99914.59;;;22.50;77.09
33795;BME280;51430;52.242;21.118;2022-08-20T04:10:58;99921.80;;;22.57;76.79
33795;BME280;51430;52.242;21.118;2022-08-20T04:13:29;99929.44;;;22.64;76.40
33795;BME280;51430;52.242;21.118;2022-08-20T04:16:01;99946.11;;;22.70;76.10
33795;BME280;51430;52.242;21.118;2022-08-20T04:18:30;99952.30;;;22.70;75.91
33795;BME280;51430;52.242;21.118;2022-08-20T04:20:59;99957.88;;;22.70;75.93
33795;BME280;51430;52.242;21.118;2022-08-20T04:23:27;99963.25;;;22.71;75.85
33795;BME280;51430;52.242;21.118;2022-08-20T04:25:57;99961.58;;;22.71;76.00
33795;BME280;51430;52.242;21.118;2022-08-20T04:28:26;99959.33;;;22.75;75.60
33795;BME280;51430;52.242;21.118;2022-08-20T04:30:58;99957.84;;;22.74;75.78
33795;BME280;51430;52.242;21.118;2022-08-20T04:33:29;99957.76;;;22.71;76.16
33795;BME280;51430;52.242;21.118;2022-08-20T04:36:04;99960.02;;;22.69;76.38
33795;BME280;51430;52.242;21.118;2022-08-20T04:38:33;99964.45;;;22.72;76.33
33795;BME280;51430;52.242;21.118;2022-08-20T04:41:21;99966.71;;;22.76;76.31
33795;BME280;51430;52.242;21.118;2022-08-20T04:43:53;99962.41;;;22.83;76.33
33795;BME280;51430;52.242;21.118;2022-08-20T04:46:24;99970.13;;;22.82;75.97
33795;BME280;51430;52.242;21.118;2022-08-20T04:48:56;99970.39;;;22.90;75.84
33795;BME280;51430;52.242;21.118;2022-08-20T04:51:24;99969.10;;;22.93;76.07
33795;BME280;51430;52.242;21.118;2022-08-20T04:53:55;99969.95;;;23.03;75.94
33795;BME280;51430;52.242;21.118;2022-08-20T04:56:26;99970.27;;;23.07;75.40
33795;BME280;51430;52.242;21.118;2022-08-20T04:58:57;99976.27;;;23.10;75.12
33795;BME280;51430;52.242;21.118;2022-08-20T05:01:26;99984.55;;;23.06;75.23
33795;BME280;51430;52.242;21.118;2022-08-20T05:03:56;99986.70;;;23.10;75.10
33795;BME280;51430;52.242;21.118;2022-08-20T05:06:28;99983.45;;;23.16;75.09
33795;BME280;51430;52.242;21.118;2022-08-20T05:08:59;99976.45;;;23.20;75.19
33795;BME280;51430;52.242;21.118;2022-08-20T05:11:28;99973.11;;;23.22;75.24
33795;BME280;51430;52.242;21.118;2022-08-20T05:14:05;99972.65;;;23.20;75.17
33795;BME280;51430;52.242;21.118;2022-08-20T05:16:37;99968.25;;;23.21;75.09
33795;BME280;51430;52.242;21.118;2022-08-20T05:19:08;99970.59;;;23.21;75.06
33795;BME280;51430;52.242;21.118;2022-08-20T05:21:38;99973.41;;;23.27;75.05
33795;BME280;51430;52.242;21.118;2022-08-20T05:24:07;99968.36;;;23.31;74.70
33795;BME280;51430;52.242;21.118;2022-08-20T05:26:37;99970.52;;;23.36;74.49
33795;BME280;51430;52.242;21.118;2022-08-20T05:29:05;99967.66;;;23.31;74.46
33795;BME280;51430;52.242;21.118;2022-08-20T05:31:34;99967.83;;;23.40;74.46
33795;BME280;51430;52.242;21.118;2022-08-20T05:34:04;99968.96;;;23.49;74.01
33795;BME280;51430;52.242;21.118;2022-08-20T05:36:45;99964.30;;;23.58;73.75
33795;BME280;51430;52.242;21.118;2022-08-20T05:39:20;99971.16;;;23.66;73.68
33795;BME280;51430;52.242;21.118;2022-08-20T05:41:49;99971.63;;;23.74;73.43
33795;BME280;51430;52.242;21.118;2022-08-20T05:44:18;99976.81;;;23.84;73.06
33795;BME280;51430;52.242;21.118;2022-08-20T05:46:47;99981.80;;;23.91;72.82
33795;BME280;51430;52.242;21.118;2022-08-20T05:49:19;99982.34;;;23.96;72.51
33795;BME280;51430;52.242;21.118;2022-08-20T05:51:48;99981.30;;;24.03;72.10
33795;BME280;51430;52.242;21.118;2022-08-20T05:54:18;99979.80;;;24.03;72.23
33795;BME280;51430;52.242;21.118;2022-08-20T05:56:47;99975.39;;;23.92;72.46
33795;BME280;51430;52.242;21.118;2022-08-20T05:59:15;99975.31;;;23.93;72.46
33795;BME280;51430;52.242;21.118;2022-08-20T06:01:51;99980.91;;;24.01;72.28
33795;BME280;51430;52.242;21.118;2022-08-20T06:04:19;99982.14;;;24.13;72.32
33795;BME280;51430;52.242;21.118;2022-08-20T06:07:01;99986.65;;;24.42;72.02
33795;BME280;51430;52.242;21.118;2022-08-20T06:09:30;99989.41;;;24.68;71.34
33795;BME280;51430;52.242;21.118;2022-08-20T06:12:02;99988.83;;;24.85;70.17
33795;BME280;51430;52.242;21.118;2022-08-20T06:14:31;99990.30;;;24.96;69.61
33795;BME280;51430;52.242;21.118;2022-08-20T06:17:12;99993.60;;;24.97;68.86
33795;BME280;51430;52.242;21.118;2022-08-20T06:19:43;99998.86;;;24.71;68.84
33795;BME280;51430;52.242;21.118;2022-08-20T06:22:14;99999.77;;;24.70;69.23
33795;BME280;51430;52.242;21.118;2022-08-20T06:24:52;100001.09;;;24.82;69.16
33795;BME280;51430;52.242;21.118;2022-08-20T06:27:22;100003.86;;;25.24;67.48
33795;BME280;51430;52.242;21.118;2022-08-20T06:29:52;99999.81;;;25.34;67.17
33795;BME280;51430;52.242;21.118;2022-08-20T06:32:22;100001.83;;;25.27;66.93
33795;BME280;51430;52.242;21.118;2022-08-20T06:35:00;100003.77;;;25.29;67.24
33795;BME280;51430;52.242;21.118;2022-08-20T06:37:32;100003.74;;;25.33;67.30
33795;BME280;51430;52.242;21.118;2022-08-20T06:40:06;100007.23;;;25.28;67.01
33795;BME280;51430;52.242;21.118;2022-08-20T06:42:35;100010.52;;;25.16;67.72
33795;BME280;51430;52.242;21.118;2022-08-20T06:45:17;100011.33;;;25.20;67.54
33795;BME280;51430;52.242;21.118;2022-08-20T06:47:46;100011.10;;;25.27;67.56
33795;BME280;51430;52.242;21.118;2022-08-20T06:50:21;100013.56;;;25.42;67.51
33795;BME280;51430;52.242;21.118;2022-08-20T06:52:50;100007.36;;;25.66;67.49
33795;BME280;51430;52.242;21.118;2022-08-20T06:55:21;100007.63;;;25.88;67.10
33795;BME280;51430;52.242;21.118;2022-08-20T06:58:01;100009.08;;;25.87;66.28
33795;BME280;51430;52.242;21.118;2022-08-20T07:00:30;100006.73;;;25.86;66.32
33795;BME280;51430;52.242;21.118;2022-08-20T07:03:00;100008.44;;;25.86;66.21
33795;BME280;51430;52.242;21.118;2022-08-20T07:05:34;100007.37;;;25.98;66.53
33795;BME280;51430;52.242;21.118;2022-08-20T07:08:03;100012.23;;;26.07;65.77
33795;BME280;51430;52.242;21.118;2022-08-20T07:10:32;100006.81;;;26.15;65.78
33795;BME280;51430;52.242;21.118;2022-08-20T07:13:00;100010.17;;;26.31;65.04
33795;BME280;51430;52.242;21.118;2022-08-20T07:15:29;100006.73;;;26.67;64.75
33795;BME280;51430;52.242;21.118;2022-08-20T07:18:00;100005.86;;;26.80;63.61
33795;BME280;51430;52.242;21.118;2022-08-20T07:20:35;100012.98;;;26.85;63.56
33795;BME280;51430;52.242;21.118;2022-08-20T07:23:06;100011.36;;;26.75;62.71
33795;BME280;51430;52.242;21.118;2022-08-20T07:25:35;100012.85;;;26.71;63.68
33795;BME280;51430;52.242;21.118;2022-08-20T07:28:07;100011.70;;;26.88;63.50
33795;BME280;51430;52.242;21.118;2022-08-20T07:30:37;100010.36;;;26.92;63.53
33795;BME280;51430;52.242;21.118;2022-08-20T07:33:25;100012.81;;;26.89;63.11
33795;BME280;51430;52.242;21.118;2022-08-20T07:35:59;100011.16;;;26.98;63.10
33795;BME280;51430;52.242;21.118;2022-08-20T07:38:30;100007.67;;;26.74;62.74
33795;BME280;51430;52.242;21.118;2022-08-20T07:41:03;100002.02;;;26.52;63.55
33795;BME280;51430;52.242;21.118;2022-08-20T07:43:32;100001.81;;;26.35;64.38
33795;BME280;51430;52.242;21.118;2022-08-20T07:46:02;100009.45;;;26.45;64.63
33795;BME280;51430;52.242;21.118;2022-08-20T07:48:38;100011.93;;;26.61;64.49
33795;BME280;51430;52.242;21.118;2022-08-20T07:51:10;100014.02;;;26.72;64.28
33795;BME280;51430;52.242;21.118;2022-08-20T07:53:39;100019.63;;;26.85;64.69
33795;BME280;51430;52.242;21.118;2022-08-20T07:56:11;100026.30;;;26.89;63.40
33795;BME280;51430;52.242;21.118;2022-08-20T07:58:47;100023.66;;;26.77;63.48
33795;BME280;51430;52.242;21.118;2022-08-20T08:01:20;100025.45;;;26.91;63.42
33795;BME280;51430;52.242;21.118;2022-08-20T08:03:49;100026.79;;;27.13;63.24
33795;BME280;51430;52.242;21.118;2022-08-20T08:06:19;100026.36;;;27.51;62.43
33795;BME280;51430;52.242;21.118;2022-08-20T08:09:02;100030.23;;;28.26;60.92
33795;BME280;51430;52.242;21.118;2022-08-20T08:11:39;100028.40;;;29.06;58.00
33795;BME280;51430;52.242;21.118;2022-08-20T08:14:21;100023.27;;;29.50;56.11
33795;BME280;51430;52.242;21.118;2022-08-20T08:16:54;100017.96;;;29.95;54.65
33795;BME280;51430;52.242;21.118;2022-08-20T08:19:25;100018.27;;;29.82;53.93
33795;BME280;51430;52.242;21.118;2022-08-20T08:21:59;100015.51;;;29.93;53.68
33795;BME280;51430;52.242;21.118;2022-08-20T08:24:28;100011.36;;;30.09;53.54
33795;BME280;51430;52.242;21.118;2022-08-20T08:26:56;100013.61;;;30.60;53.48
33795;BME280;51430;52.242;21.118;2022-08-20T08:29:24;100010.67;;;30.98;52.21
33795;BME280;51430;52.242;21.118;2022-08-20T08:31:53;100008.12;;;30.74;51.92
33795;BME280;51430;52.242;21.118;2022-08-20T08:34:22;100003.32;;;30.29;53.09
33795;BME280;51430;52.242;21.118;2022-08-20T08:36:53;99994.69;;;30.26;54.45
33795;BME280;51430;52.242;21.118;2022-08-20T08:39:23;99989.72;;;30.89;53.16
33795;BME280;51430;52.242;21.118;2022-08-20T08:42:00;99985.67;;;31.59;51.01
33795;BME280;51430;52.242;21.118;2022-08-20T08:44:39;99983.54;;;31.81;50.99
33795;BME280;51430;52.242;21.118;2022-08-20T08:47:31;99975.02;;;32.04;50.39
33795;BME280;51430;52.242;21.118;2022-08-20T08:50:05;99976.15;;;32.16;49.78
33795;BME280;51430;52.242;21.118;2022-08-20T08:52:37;99972.08;;;31.66;50.12
33795;BME280;51430;52.242;21.118;2022-08-20T08:55:13;99972.81;;;31.42;51.42
33795;BME280;51430;52.242;21.118;2022-08-20T08:57:43;99968.08;;;31.58;51.72
33795;BME280;51430;52.242;21.118;2022-08-20T09:00:19;99976.27;;;31.77;51.27
33795;BME280;51430;52.242;21.118;2022-08-20T09:03:07;99982.99;;;31.87;51.27
33795;BME280;51430;52.242;21.118;2022-08-20T09:08:18;99993.98;;;31.17;50.90
33795;BME280;51430;52.242;21.118;2022-08-20T09:10:51;99993.02;;;30.59;51.65
33795;BME280;51430;52.242;21.118;2022-08-20T09:13:19;99997.30;;;31.25;51.22
33795;BME280;51430;52.242;21.118;2022-08-20T09:15:47;100000.25;;;31.33;50.64
33795;BME280;51430;52.242;21.118;2022-08-20T09:18:15;100000.15;;;31.12;50.10
33795;BME280;51430;52.242;21.118;2022-08-20T09:20:43;99997.73;;;30.63;50.70
33795;BME280;51430;52.242;21.118;2022-08-20T09:23:11;99998.67;;;30.42;52.15
33795;BME280;51430;52.242;21.118;2022-08-20T09:25:39;99997.70;;;30.52;52.42
33795;BME280;51430;52.242;21.118;2022-08-20T09:28:08;99996.91;;;30.58;52.02
33795;BME280;51430;52.242;21.118;2022-08-20T09:30:36;100000.13;;;30.98;51.70
33795;BME280;51430;52.242;21.118;2022-08-20T09:33:04;100000.14;;;31.55;50.19
33795;BME280;51430;52.242;21.118;2022-08-20T09:35:33;100002.23;;;32.29;49.55
33795;BME280;51430;52.242;21.118;2022-08-20T09:38:01;100005.23;;;32.58;47.79
33795;BME280;51430;52.242;21.118;2022-08-20T09:40:29;100004.81;;;32.65;46.35
33795;BME280;51430;52.242;21.118;2022-08-20T09:42:57;100000.95;;;32.55;46.37
33795;BME280;51430;52.242;21.118;2022-08-20T09:45:26;99996.73;;;32.30;46.76
33795;BME280;51430;52.242;21.118;2022-08-20T09:47:53;99994.56;;;32.58;46.58
33795;BME280;51430;52.242;21.118;2022-08-20T09:50:26;99994.76;;;32.80;46.06
33795;BME280;51430;52.242;21.118;2022-08-20T09:52:56;99984.92;;;32.30;45.72
33795;BME280;51430;52.242;21.118;2022-08-20T09:55:34;99983.66;;;31.73;46.84
33795;BME280;51430;52.242;21.118;2022-08-20T09:58:08;99982.05;;;32.18;46.94
33795;BME280;51430;52.242;21.118;2022-08-20T10:00:39;99985.46;;;32.84;46.17
33795;BME280;51430;52.242;21.118;2022-08-20T10:03:07;99989.15;;;33.83;44.70
33795;BME280;51430;52.242;21.118;2022-08-20T10:05:35;99986.71;;;34.90;42.74
33795;BME280;51430;52.242;21.118;2022-08-20T10:08:08;99989.48;;;36.13;40.82
33795;BME280;51430;52.242;21.118;2022-08-20T10:10:37;99998.30;;;36.41;39.58
33795;BME280;51430;52.242;21.118;2022-08-20T10:13:05;99992.90;;;36.09;39.21
33795;BME280;51430;52.242;21.118;2022-08-20T10:15:34;99989.66;;;35.78;39.44
33795;BME280;51430;52.242;21.118;2022-08-20T10:18:04;99986.99;;;35.46;40.07
33795;BME280;51430;52.242;21.118;2022-08-20T10:20:34;99981.05;;;35.94;39.69
33795;BME280;51430;52.242;21.118;2022-08-20T10:23:03;99980.48;;;35.84;39.44
33795;BME280;51430;52.242;21.118;2022-08-20T10:25:32;99978.46;;;35.66;39.84
33795;BME280;51430;52.242;21.118;2022-08-20T10:28:00;99981.43;;;36.24;39.81
33795;BME280;51430;52.242;21.118;2022-08-20T10:30:28;99977.02;;;36.90;38.41
33795;BME280;51430;52.242;21.118;2022-08-20T10:32:56;99980.45;;;36.59;37.93
33795;BME280;51430;52.242;21.118;2022-08-20T10:35:24;99971.71;;;35.71;39.35
33795;BME280;51430;52.242;21.118;2022-08-20T10:37:52;99966.31;;;35.71;39.00
33795;BME280;51430;52.242;21.118;2022-08-20T10:40:21;99965.95;;;35.54;39.32
33795;BME280;51430;52.242;21.118;2022-08-20T10:42:49;99962.91;;;35.90;38.91
33795;BME280;51430;52.242;21.118;2022-08-20T10:45:19;99969.15;;;35.84;38.03
33795;BME280;51430;52.242;21.118;2022-08-20T10:47:47;99962.20;;;34.65;40.13
33795;BME280;51430;52.242;21.118;2022-08-20T10:50:15;99965.58;;;35.33;39.94
33795;BME280;51430;52.242;21.118;2022-08-20T10:52:45;99968.08;;;36.34;37.85
33795;BME280;51430;52.242;21.118;2022-08-20T10:55:14;99969.94;;;36.29;37.79
33795;BME280;51430;52.242;21.118;2022-08-20T10:57:42;99976.30;;;36.26;37.79
33795;BME280;51430;52.242;21.118;2022-08-20T11:00:15;99981.20;;;36.03;37.97
33795;BME280;51430;52.242;21.118;2022-08-20T11:02:43;99976.98;;;36.19;37.28
33795;BME280;51430;52.242;21.118;2022-08-20T11:05:12;99978.23;;;36.29;37.23
33795;BME280;51430;52.242;21.118;2022-08-20T11:07:42;99974.79;;;36.37;37.00
33795;BME280;51430;52.242;21.118;2022-08-20T11:10:25;99971.73;;;36.30;37.01
33795;BME280;51430;52.242;21.118;2022-08-20T11:12:53;99969.09;;;36.27;36.80
33795;BME280;51430;52.242;21.118;2022-08-20T11:15:22;99963.82;;;36.65;36.35
33795;BME280;51430;52.242;21.118;2022-08-20T11:17:50;99962.89;;;37.18;35.56
33795;BME280;51430;52.242;21.118;2022-08-20T11:20:20;99968.15;;;38.45;34.56
33795;BME280;51430;52.242;21.118;2022-08-20T11:22:48;99964.98;;;39.55;33.80
33795;BME280;51430;52.242;21.118;2022-08-20T11:25:17;99968.45;;;39.79;32.22
33795;BME280;51430;52.242;21.118;2022-08-20T11:27:48;99964.42;;;39.43;32.57
33795;BME280;51430;52.242;21.118;2022-08-20T11:30:20;99963.60;;;39.67;32.60
33795;BME280;51430;52.242;21.118;2022-08-20T11:32:49;99964.14;;;39.55;32.81
33795;BME280;51430;52.242;21.118;2022-08-20T11:35:17;99966.44;;;39.86;32.92
33795;BME280;51430;52.242;21.118;2022-08-20T11:38:09;99964.13;;;39.63;32.68
33795;BME280;51430;52.242;21.118;2022-08-20T11:40:37;99967.33;;;39.73;32.37
33795;BME280;51430;52.242;21.118;2022-08-20T11:43:05;99967.38;;;39.32;32.49
33795;BME280;51430;52.242;21.118;2022-08-20T11:45:45;99970.27;;;38.68;33.00
33795;BME280;51430;52.242;21.118;2022-08-20T11:48:14;99975.83;;;38.24;33.36
33795;BME280;51430;52.242;21.118;2022-08-20T11:50:45;99980.92;;;38.00;34.46
33795;BME280;51430;52.242;21.118;2022-08-20T11:53:13;99974.60;;;38.51;32.89
33795;BME280;51430;52.242;21.118;2022-08-20T11:55:42;99974.45;;;38.94;32.74
33795;BME280;51430;52.242;21.118;2022-08-20T11:58:10;99970.90;;;39.28;32.05
33795;BME280;51430;52.242;21.118;2022-08-20T12:00:39;99966.48;;;38.11;33.03
33795;BME280;51430;52.242;21.118;2022-08-20T12:03:07;99963.77;;;37.75;33.84
33795;BME280;51430;52.242;21.118;2022-08-20T12:05:41;99965.84;;;37.73;33.67
33795;BME280;51430;52.242;21.118;2022-08-20T12:08:10;99962.49;;;37.41;33.73
33795;BME280;51430;52.242;21.118;2022-08-20T12:10:57;99963.17;;;37.17;33.95
33795;BME280;51430;52.242;21.118;2022-08-20T12:13:29;99962.84;;;36.95;33.79
33795;BME280;51430;52.242;21.118;2022-08-20T12:16:19;99962.20;;;37.59;33.50
33795;BME280;51430;52.242;21.118;2022-08-20T12:18:47;99955.13;;;38.44;32.21
33795;BME280;51430;52.242;21.118;2022-08-20T12:21:15;99955.61;;;38.30;32.04
33795;BME280;51430;52.242;21.118;2022-08-20T12:23:44;99958.16;;;38.12;32.51
33795;BME280;51430;52.242;21.118;2022-08-20T12:26:13;99957.34;;;38.18;33.51
33795;BME280;51430;52.242;21.118;2022-08-20T12:28:43;99957.21;;;38.33;32.61
33795;BME280;51430;52.242;21.118;2022-08-20T12:31:11;99955.02;;;38.63;31.50
33795;BME280;51430;52.242;21.118;2022-08-20T12:33:39;99952.74;;;37.91;32.51
33795;BME280;51430;52.242;21.118;2022-08-20T12:36:08;99948.46;;;38.36;32.30
33795;BME280;51430;52.242;21.118;2022-08-20T12:38:36;99948.63;;;38.09;31.71
33795;BME280;51430;52.242;21.118;2022-08-20T12:41:04;99948.84;;;38.82;32.31
33795;BME280;51430;52.242;21.118;2022-08-20T12:43:32;99948.89;;;39.73;32.25
33795;BME280;51430;52.242;21.118;2022-08-20T12:46:01;99948.73;;;40.14;31.04
33795;BME280;51430;52.242;21.118;2022-08-20T12:48:29;99945.87;;;40.29;31.57
33795;BME280;51430;52.242;21.118;2022-08-20T12:50:57;99941.03;;;40.77;30.58
33795;BME280;51430;52.242;21.118;2022-08-20T12:53:25;99942.38;;;40.55;30.73
33795;BME280;51430;52.242;21.118;2022-08-20T12:55:53;99941.20;;;40.59;30.47
33795;BME280;51430;52.242;21.118;2022-08-20T12:58:21;99935.41;;;40.23;30.25
33795;BME280;51430;52.242;21.118;2022-08-20T13:00:49;99939.21;;;39.66;30.64
33795;BME280;51430;52.242;21.118;2022-08-20T13:03:18;99938.70;;;39.28;31.13
33795;BME280;51430;52.242;21.118;2022-08-20T13:05:48;99930.38;;;39.37;31.13
33795;BME280;51430;52.242;21.118;2022-08-20T13:08:17;99924.13;;;38.64;31.76
33795;BME280;51430;52.242;21.118;2022-08-20T13:10:47;99922.77;;;38.21;31.76
33795;BME280;51430;52.242;21.118;2022-08-20T13:13:16;99924.34;;;37.99;32.82
33795;BME280;51430;52.242;21.118;2022-08-20T13:15:49;99921.11;;;38.15;32.67
33795;BME280;51430;52.242;21.118;2022-08-20T13:18:18;99919.95;;;38.14;32.56